sensor_id;sensor_type;location;lat;lon;timestamp;P1;durP1;ratioP1;P2;durP2;ratioP2
80195;SDS011;69516;42.050;21.516;2024-01-30T00:00:40;7.15;;;3.35;;
80195;SDS011;69516;42.050;21.516;2024-01-30T00:03:06;6.72;;;3.40;;
80195;SDS011;69516;42.050;21.516;2024-01-30T00:05:32;8.75;;;3.63;;
80195;SDS011;69516;42.050;21.516;2024-01-30T00:08:00;7.22;;;3.22;;
80195;SDS011;69516;42.050;21.516;2024-01-30T00:10:26;5.45;;;2.30;;
80195;SDS011;69516;42.050;21.516;2024-01-30T00:12:53;6.03;;;3.15;;
80195;SDS011;69516;42.050;21.516;2024-01-30T00:15:19;6.93;;;3.42;;
80195;SDS011;69516;42.050;21.516;2024-01-30T00:17:45;6.72;;;3.35;;
80195;SDS011;69516;42.050;21.516;2024-01-30T00:20:11;7.20;;;3.40;;
80195;SDS011;69516;42.050;21.516;2024-01-30T00:22:37;9.88;;;4.97;;
80195;SDS011;69516;42.050;21.516;2024-01-30T00:25:03;6.95;;;3.55;;
80195;SDS011;69516;42.050;21.516;2024-01-30T00:27:30;8.35;;;4.50;;
80195;SDS011;69516;42.050;21.516;2024-01-30T00:29:56;8.00;;;4.30;;
80195;SDS011;69516;42.050;21.516;2024-01-30T00:32:22;9.35;;;4.20;;
80195;SDS011;69516;42.050;21.516;2024-01-30T00:34:48;10.30;;;5.32;;
80195;SDS011;69516;42.050;21.516;2024-01-30T00:37:14;9.57;;;4.80;;
80195;SDS011;69516;42.050;21.516;2024-01-30T00:39:41;6.22;;;2.83;;
80195;SDS011;69516;42.050;21.516;2024-01-30T00:42:07;4.45;;;2.00;;
80195;SDS011;69516;42.050;21.516;2024-01-30T00:44:36;4.95;;;1.85;;
80195;SDS011;69516;42.050;21.516;2024-01-30T00:47:03;5.60;;;2.10;;
80195;SDS011;69516;42.050;21.516;2024-01-30T00:49:30;5.15;;;2.40;;
80195;SDS011;69516;42.050;21.516;2024-01-30T00:51:56;5.18;;;2.22;;
80195;SDS011;69516;42.050;21.516;2024-01-30T00:54:22;5.30;;;2.33;;
80195;SDS011;69516;42.050;21.516;2024-01-30T00:56:48;8.02;;;3.28;;
80195;SDS011;69516;42.050;21.516;2024-01-30T00:59:14;6.85;;;2.40;;
80195;SDS011;69516;42.050;21.516;2024-01-30T01:01:40;9.00;;;3.20;;
80195;SDS011;69516;42.050;21.516;2024-01-30T01:04:07;6.22;;;2.25;;
80195;SDS011;69516;42.050;21.516;2024-01-30T01:06:33;5.82;;;2.38;;
80195;SDS011;69516;42.050;21.516;2024-01-30T01:08:59;5.18;;;2.50;;
80195;SDS011;69516;42.050;21.516;2024-01-30T01:11:25;6.85;;;2.55;;
80195;SDS011;69516;42.050;21.516;2024-01-30T01:13:51;5.53;;;2.60;;
80195;SDS011;69516;42.050;21.516;2024-01-30T01:16:17;5.70;;;2.90;;
80195;SDS011;69516;42.050;21.516;2024-01-30T01:18:43;5.90;;;2.40;;
80195;SDS011;69516;42.050;21.516;2024-01-30T01:21:09;6.00;;;2.50;;
80195;SDS011;69516;42.050;21.516;2024-01-30T01:23:36;5.97;;;2.78;;
80195;SDS011;69516;42.050;21.516;2024-01-30T01:26:02;5.45;;;2.72;;
80195;SDS011;69516;42.050;21.516;2024-01-30T01:28:28;7.47;;;2.60;;
80195;SDS011;69516;42.050;21.516;2024-01-30T01:30:54;5.75;;;2.33;;
80195;SDS011;69516;42.050;21.516;2024-01-30T01:33:24;5.80;;;2.50;;
80195;SDS011;69516;42.050;21.516;2024-01-30T01:35:50;5.38;;;2.70;;
80195;SDS011;69516;42.050;21.516;2024-01-30T01:38:16;5.30;;;2.58;;
80195;SDS011;69516;42.050;21.516;2024-01-30T01:40:42;5.53;;;2.58;;
80195;SDS011;69516;42.050;21.516;2024-01-30T01:43:09;6.55;;;2.75;;
80195;SDS011;69516;42.050;21.516;2024-01-30T01:45:35;6.72;;;2.63;;
80195;SDS011;69516;42.050;21.516;2024-01-30T01:48:01;5.13;;;2.25;;
80195;SDS011;69516;42.050;21.516;2024-01-30T01:50:27;6.10;;;2.58;;
80195;SDS011;69516;42.050;21.516;2024-01-30T01:52:53;5.28;;;2.42;;
80195;SDS011;69516;42.050;21.516;2024-01-30T01:55:21;5.43;;;2.30;;
80195;SDS011;69516;42.050;21.516;2024-01-30T01:57:48;5.35;;;2.35;;
80195;SDS011;69516;42.050;21.516;2024-01-30T02:00:15;4.10;;;1.50;;
80195;SDS011;69516;42.050;21.516;2024-01-30T02:02:41;5.43;;;2.10;;
80195;SDS011;69516;42.050;21.516;2024-01-30T02:05:09;5.97;;;2.00;;
80195;SDS011;69516;42.050;21.516;2024-01-30T02:07:36;5.55;;;2.10;;
80195;SDS011;69516;42.050;21.516;2024-01-30T02:10:02;4.70;;;2.33;;
80195;SDS011;69516;42.050;21.516;2024-01-30T02:12:29;4.65;;;2.20;;
80195;SDS011;69516;42.050;21.516;2024-01-30T02:14:55;5.55;;;1.75;;
80195;SDS011;69516;42.050;21.516;2024-01-30T02:17:21;6.32;;;2.08;;
80195;SDS011;69516;42.050;21.516;2024-01-30T02:19:48;5.00;;;1.77;;
80195;SDS011;69516;42.050;21.516;2024-01-30T02:22:15;5.10;;;2.63;;
80195;SDS011;69516;42.050;21.516;2024-01-30T02:24:41;6.05;;;2.15;;
80195;SDS011;69516;42.050;21.516;2024-01-30T02:27:07;4.82;;;2.03;;
80195;SDS011;69516;42.050;21.516;2024-01-30T02:29:33;5.97;;;2.15;;
80195;SDS011;69516;42.050;21.516;2024-01-30T02:31:59;5.78;;;2.20;;
80195;SDS011;69516;42.050;21.516;2024-01-30T02:34:25;4.35;;;1.83;;
80195;SDS011;69516;42.050;21.516;2024-01-30T02:36:51;4.82;;;2.15;;
80195;SDS011;69516;42.050;21.516;2024-01-30T02:39:18;6.28;;;2.53;;
80195;SDS011;69516;42.050;21.516;2024-01-30T02:41:44;5.47;;;2.13;;
80195;SDS011;69516;42.050;21.516;2024-01-30T02:44:10;6.57;;;2.75;;
80195;SDS011;69516;42.050;21.516;2024-01-30T02:46:37;6.50;;;2.70;;
80195;SDS011;69516;42.050;21.516;2024-01-30T02:49:03;5.72;;;2.50;;
80195;SDS011;69516;42.050;21.516;2024-01-30T02:51:29;4.95;;;2.20;;
80195;SDS011;69516;42.050;21.516;2024-01-30T02:53:55;5.35;;;2.30;;
80195;SDS011;69516;42.050;21.516;2024-01-30T02:56:21;4.95;;;2.17;;
80195;SDS011;69516;42.050;21.516;2024-01-30T02:58:47;4.45;;;1.70;;
80195;SDS011;69516;42.050;21.516;2024-01-30T03:01:14;5.82;;;2.03;;
80195;SDS011;69516;42.050;21.516;2024-01-30T03:03:40;4.35;;;1.80;;
80195;SDS011;69516;42.050;21.516;2024-01-30T03:06:07;5.30;;;2.08;;
80195;SDS011;69516;42.050;21.516;2024-01-30T03:08:33;4.15;;;1.67;;
80195;SDS011;69516;42.050;21.516;2024-01-30T03:11:00;5.07;;;2.00;;
80195;SDS011;69516;42.050;21.516;2024-01-30T03:13:26;4.57;;;1.90;;
80195;SDS011;69516;42.050;21.516;2024-01-30T03:15:53;7.50;;;3.05;;
80195;SDS011;69516;42.050;21.516;2024-01-30T03:18:19;14.68;;;8.45;;
80195;SDS011;69516;42.050;21.516;2024-01-30T03:20:45;15.20;;;7.90;;
80195;SDS011;69516;42.050;21.516;2024-01-30T03:23:11;15.57;;;8.13;;
80195;SDS011;69516;42.050;21.516;2024-01-30T03:25:37;14.52;;;7.20;;
80195;SDS011;69516;42.050;21.516;2024-01-30T03:28:03;11.48;;;6.50;;
80195;SDS011;69516;42.050;21.516;2024-01-30T03:30:29;11.75;;;5.68;;
80195;SDS011;69516;42.050;21.516;2024-01-30T03:32:56;11.90;;;6.03;;
80195;SDS011;69516;42.050;21.516;2024-01-30T03:35:22;11.90;;;6.32;;
80195;SDS011;69516;42.050;21.516;2024-01-30T03:37:48;13.07;;;6.47;;
80195;SDS011;69516;42.050;21.516;2024-01-30T03:40:14;11.10;;;6.25;;
80195;SDS011;69516;42.050;21.516;2024-01-30T03:42:40;11.30;;;5.45;;
80195;SDS011;69516;42.050;21.516;2024-01-30T03:45:06;12.02;;;6.70;;
80195;SDS011;69516;42.050;21.516;2024-01-30T03:47:33;15.68;;;6.88;;
80195;SDS011;69516;42.050;21.516;2024-01-30T03:49:59;17.45;;;8.57;;
80195;SDS011;69516;42.050;21.516;2024-01-30T03:52:25;11.00;;;6.43;;
80195;SDS011;69516;42.050;21.516;2024-01-30T03:54:51;10.02;;;5.53;;
80195;SDS011;69516;42.050;21.516;2024-01-30T03:57:17;12.13;;;5.60;;
80195;SDS011;69516;42.050;21.516;2024-01-30T03:59:43;10.32;;;5.50;;
80195;SDS011;69516;42.050;21.516;2024-01-30T04:02:10;14.43;;;6.63;;
80195;SDS011;69516;42.050;21.516;2024-01-30T04:04:39;12.00;;;5.78;;
80195;SDS011;69516;42.050;21.516;2024-01-30T04:07:05;9.95;;;5.13;;
80195;SDS011;69516;42.050;21.516;2024-01-30T04:09:31;13.13;;;5.80;;
80195;SDS011;69516;42.050;21.516;2024-01-30T04:11:57;11.20;;;5.45;;
80195;SDS011;69516;42.050;21.516;2024-01-30T04:14:23;11.93;;;6.85;;
80195;SDS011;69516;42.050;21.516;2024-01-30T04:16:49;14.15;;;6.32;;
80195;SDS011;69516;42.050;21.516;2024-01-30T04:19:16;11.85;;;6.68;;
80195;SDS011;69516;42.050;21.516;2024-01-30T04:21:42;13.25;;;6.57;;
80195;SDS011;69516;42.050;21.516;2024-01-30T04:24:08;13.65;;;6.75;;
80195;SDS011;69516;42.050;21.516;2024-01-30T04:26:34;15.68;;;6.47;;
80195;SDS011;69516;42.050;21.516;2024-01-30T04:29:02;13.70;;;6.40;;
80195;SDS011;69516;42.050;21.516;2024-01-30T04:31:28;12.90;;;7.13;;
80195;SDS011;69516;42.050;21.516;2024-01-30T04:33:54;14.10;;;6.75;;
80195;SDS011;69516;42.050;21.516;2024-01-30T04:36:20;13.60;;;6.00;;
80195;SDS011;69516;42.050;21.516;2024-01-30T04:38:46;13.70;;;6.95;;
80195;SDS011;69516;42.050;21.516;2024-01-30T04:41:12;13.05;;;6.80;;
80195;SDS011;69516;42.050;21.516;2024-01-30T04:43:38;14.32;;;7.40;;
80195;SDS011;69516;42.050;21.516;2024-01-30T04:46:04;13.77;;;7.53;;
80195;SDS011;69516;42.050;21.516;2024-01-30T04:48:31;21.90;;;11.13;;
80195;SDS011;69516;42.050;21.516;2024-01-30T04:50:57;27.02;;;20.25;;
80195;SDS011;69516;42.050;21.516;2024-01-30T04:53:23;12.05;;;7.32;;
80195;SDS011;69516;42.050;21.516;2024-01-30T04:55:49;17.80;;;7.35;;
80195;SDS011;69516;42.050;21.516;2024-01-30T04:58:15;10.77;;;5.90;;
80195;SDS011;69516;42.050;21.516;2024-01-30T05:00:41;12.93;;;5.95;;
80195;SDS011;69516;42.050;21.516;2024-01-30T05:03:08;10.73;;;5.65;;
80195;SDS011;69516;42.050;21.516;2024-01-30T05:05:34;12.85;;;5.55;;
80195;SDS011;69516;42.050;21.516;2024-01-30T05:08:00;13.18;;;6.28;;
80195;SDS011;69516;42.050;21.516;2024-01-30T05:10:26;13.93;;;6.32;;
80195;SDS011;69516;42.050;21.516;2024-01-30T05:12:53;10.93;;;6.10;;
80195;SDS011;69516;42.050;21.516;2024-01-30T05:15:19;11.20;;;6.07;;
80195;SDS011;69516;42.050;21.516;2024-01-30T05:17:46;11.95;;;5.70;;
80195;SDS011;69516;42.050;21.516;2024-01-30T05:20:12;14.52;;;6.70;;
80195;SDS011;69516;42.050;21.516;2024-01-30T05:22:38;11.63;;;6.10;;
80195;SDS011;69516;42.050;21.516;2024-01-30T05:25:10;13.73;;;5.75;;
80195;SDS011;69516;42.050;21.516;2024-01-30T05:27:36;12.32;;;6.20;;
80195;SDS011;69516;42.050;21.516;2024-01-30T05:30:03;13.13;;;5.93;;
80195;SDS011;69516;42.050;21.516;2024-01-30T05:32:29;13.32;;;5.53;;
80195;SDS011;69516;42.050;21.516;2024-01-30T05:34:55;11.23;;;5.80;;
80195;SDS011;69516;42.050;21.516;2024-01-30T05:37:21;14.80;;;7.78;;
80195;SDS011;69516;42.050;21.516;2024-01-30T05:39:47;13.32;;;6.10;;
80195;SDS011;69516;42.050;21.516;2024-01-30T05:42:14;18.23;;;8.98;;
80195;SDS011;69516;42.050;21.516;2024-01-30T05:44:42;14.60;;;7.15;;
80195;SDS011;69516;42.050;21.516;2024-01-30T05:47:08;10.57;;;4.82;;
80195;SDS011;69516;42.050;21.516;2024-01-30T05:49:34;11.65;;;5.97;;
80195;SDS011;69516;42.050;21.516;2024-01-30T05:52:02;11.90;;;5.53;;
80195;SDS011;69516;42.050;21.516;2024-01-30T05:54:28;23.27;;;8.35;;
80195;SDS011;69516;42.050;21.516;2024-01-30T05:56:54;18.65;;;7.35;;
80195;SDS011;69516;42.050;21.516;2024-01-30T05:59:20;14.63;;;7.18;;
80195;SDS011;69516;42.050;21.516;2024-01-30T06:01:47;14.98;;;6.88;;
80195;SDS011;69516;42.050;21.516;2024-01-30T06:04:14;12.75;;;5.75;;
80195;SDS011;69516;42.050;21.516;2024-01-30T06:06:40;16.17;;;6.88;;
80195;SDS011;69516;42.050;21.516;2024-01-30T06:09:06;30.88;;;12.98;;
80195;SDS011;69516;42.050;21.516;2024-01-30T06:11:37;15.07;;;7.07;;
80195;SDS011;69516;42.050;21.516;2024-01-30T06:14:04;13.88;;;7.05;;
80195;SDS011;69516;42.050;21.516;2024-01-30T06:16:30;14.40;;;7.53;;
80195;SDS011;69516;42.050;21.516;2024-01-30T06:18:56;15.45;;;7.25;;
80195;SDS011;69516;42.050;21.516;2024-01-30T06:21:23;16.55;;;7.30;;
80195;SDS011;69516;42.050;21.516;2024-01-30T06:23:49;17.67;;;7.20;;
80195;SDS011;69516;42.050;21.516;2024-01-30T06:26:15;13.68;;;7.15;;
80195;SDS011;69516;42.050;21.516;2024-01-30T06:28:41;15.50;;;7.40;;
80195;SDS011;69516;42.050;21.516;2024-01-30T06:31:08;14.60;;;7.20;;
80195;SDS011;69516;42.050;21.516;2024-01-30T06:33:34;18.25;;;7.85;;
80195;SDS011;69516;42.050;21.516;2024-01-30T06:36:00;16.02;;;8.52;;
80195;SDS011;69516;42.050;21.516;2024-01-30T06:38:26;23.67;;;9.70;;
80195;SDS011;69516;42.050;21.516;2024-01-30T06:40:52;16.52;;;8.93;;
80195;SDS011;69516;42.050;21.516;2024-01-30T06:43:18;33.95;;;18.42;;
80195;SDS011;69516;42.050;21.516;2024-01-30T06:45:44;20.65;;;9.93;;
80195;SDS011;69516;42.050;21.516;2024-01-30T06:48:14;29.27;;;13.55;;
80195;SDS011;69516;42.050;21.516;2024-01-30T06:50:43;19.45;;;9.48;;
80195;SDS011;69516;42.050;21.516;2024-01-30T06:53:10;23.90;;;11.75;;
80195;SDS011;69516;42.050;21.516;2024-01-30T06:55:37;16.67;;;7.88;;
80195;SDS011;69516;42.050;21.516;2024-01-30T06:58:03;18.40;;;8.43;;
80195;SDS011;69516;42.050;21.516;2024-01-30T07:00:29;12.73;;;6.43;;
80195;SDS011;69516;42.050;21.516;2024-01-30T07:02:55;20.42;;;10.18;;
80195;SDS011;69516;42.050;21.516;2024-01-30T07:05:22;25.92;;;13.48;;
80195;SDS011;69516;42.050;21.516;2024-01-30T07:07:48;24.95;;;13.32;;
80195;SDS011;69516;42.050;21.516;2024-01-30T07:10:14;21.45;;;11.65;;
80195;SDS011;69516;42.050;21.516;2024-01-30T07:12:40;19.65;;;9.63;;
80195;SDS011;69516;42.050;21.516;2024-01-30T07:15:06;17.70;;;9.10;;
80195;SDS011;69516;42.050;21.516;2024-01-30T07:17:35;17.95;;;8.95;;
80195;SDS011;69516;42.050;21.516;2024-01-30T07:20:02;12.40;;;7.22;;
80195;SDS011;69516;42.050;21.516;2024-01-30T07:22:29;12.68;;;7.10;;
80195;SDS011;69516;42.050;21.516;2024-01-30T07:24:56;11.02;;;6.45;;
80195;SDS011;69516;42.050;21.516;2024-01-30T07:27:22;13.93;;;7.05;;
80195;SDS011;69516;42.050;21.516;2024-01-30T07:29:48;17.80;;;9.25;;
80195;SDS011;69516;42.050;21.516;2024-01-30T07:32:15;15.88;;;7.63;;
80195;SDS011;69516;42.050;21.516;2024-01-30T07:34:41;18.27;;;9.27;;
80195;SDS011;69516;42.050;21.516;2024-01-30T07:37:07;12.68;;;6.95;;
80195;SDS011;69516;42.050;21.516;2024-01-30T07:39:33;11.95;;;6.72;;
80195;SDS011;69516;42.050;21.516;2024-01-30T07:42:00;12.27;;;7.15;;
80195;SDS011;69516;42.050;21.516;2024-01-30T07:44:26;10.88;;;6.20;;
80195;SDS011;69516;42.050;21.516;2024-01-30T07:49:47;13.00;;;7.55;;
80195;SDS011;69516;42.050;21.516;2024-01-30T07:52:13;15.40;;;6.95;;
80195;SDS011;69516;42.050;21.516;2024-01-30T07:54:42;10.05;;;5.47;;
80195;SDS011;69516;42.050;21.516;2024-01-30T07:57:09;14.77;;;7.00;;
80195;SDS011;69516;42.050;21.516;2024-01-30T07:59:40;12.45;;;6.25;;
80195;SDS011;69516;42.050;21.516;2024-01-30T08:02:16;12.48;;;6.85;;
80195;SDS011;69516;42.050;21.516;2024-01-30T08:04:42;12.57;;;6.85;;
80195;SDS011;69516;42.050;21.516;2024-01-30T08:07:13;13.88;;;6.55;;
80195;SDS011;69516;42.050;21.516;2024-01-30T08:09:39;10.57;;;6.28;;
80195;SDS011;69516;42.050;21.516;2024-01-30T08:12:06;13.38;;;6.70;;
80195;SDS011;69516;42.050;21.516;2024-01-30T08:14:32;11.98;;;5.68;;
80195;SDS011;69516;42.050;21.516;2024-01-30T08:16:58;12.73;;;6.20;;
80195;SDS011;69516;42.050;21.516;2024-01-30T08:19:24;9.50;;;5.40;;
80195;SDS011;69516;42.050;21.516;2024-01-30T08:21:50;10.98;;;5.68;;
80195;SDS011;69516;42.050;21.516;2024-01-30T08:24:17;11.32;;;6.15;;
80195;SDS011;69516;42.050;21.516;2024-01-30T08:26:43;11.15;;;5.63;;
80195;SDS011;69516;42.050;21.516;2024-01-30T08:29:09;11.68;;;6.53;;
80195;SDS011;69516;42.050;21.516;2024-01-30T08:31:35;10.80;;;6.32;;
80195;SDS011;69516;42.050;21.516;2024-01-30T08:34:02;12.27;;;6.20;;
80195;SDS011;69516;42.050;21.516;2024-01-30T08:36:28;11.50;;;5.55;;
80195;SDS011;69516;42.050;21.516;2024-01-30T08:38:55;13.35;;;6.53;;
80195;SDS011;69516;42.050;21.516;2024-01-30T08:41:24;11.10;;;6.55;;
80195;SDS011;69516;42.050;21.516;2024-01-30T08:43:57;11.88;;;6.10;;
80195;SDS011;69516;42.050;21.516;2024-01-30T08:46:23;10.70;;;5.93;;
80195;SDS011;69516;42.050;21.516;2024-01-30T08:48:49;14.77;;;6.75;;
80195;SDS011;69516;42.050;21.516;2024-01-30T08:51:15;11.35;;;6.82;;
80195;SDS011;69516;42.050;21.516;2024-01-30T08:53:42;12.10;;;6.18;;
80195;SDS011;69516;42.050;21.516;2024-01-30T08:56:08;12.75;;;6.72;;
80195;SDS011;69516;42.050;21.516;2024-01-30T08:58:34;10.95;;;5.13;;
80195;SDS011;69516;42.050;21.516;2024-01-30T09:01:03;10.55;;;4.88;;
80195;SDS011;69516;42.050;21.516;2024-01-30T09:03:33;9.52;;;5.53;;
80195;SDS011;69516;42.050;21.516;2024-01-30T09:05:59;10.88;;;5.57;;
80195;SDS011;69516;42.050;21.516;2024-01-30T09:08:28;11.93;;;5.95;;
80195;SDS011;69516;42.050;21.516;2024-01-30T09:10:54;9.10;;;4.50;;
80195;SDS011;69516;42.050;21.516;2024-01-30T09:13:21;11.75;;;5.57;;
80195;SDS011;69516;42.050;21.516;2024-01-30T09:15:59;9.95;;;5.75;;
80195;SDS011;69516;42.050;21.516;2024-01-30T09:18:25;14.68;;;7.68;;
80195;SDS011;69516;42.050;21.516;2024-01-30T09:20:51;11.48;;;6.45;;
80195;SDS011;69516;42.050;21.516;2024-01-30T09:23:17;10.77;;;5.90;;
80195;SDS011;69516;42.050;21.516;2024-01-30T09:25:44;10.77;;;6.00;;
80195;SDS011;69516;42.050;21.516;2024-01-30T09:28:11;12.00;;;6.47;;
80195;SDS011;69516;42.050;21.516;2024-01-30T09:30:43;12.18;;;5.82;;
80195;SDS011;69516;42.050;21.516;2024-01-30T09:33:12;12.20;;;6.15;;
80195;SDS011;69516;42.050;21.516;2024-01-30T09:35:38;11.15;;;5.97;;
80195;SDS011;69516;42.050;21.516;2024-01-30T09:38:04;13.48;;;6.65;;
80195;SDS011;69516;42.050;21.516;2024-01-30T09:40:30;12.65;;;6.43;;
80195;SDS011;69516;42.050;21.516;2024-01-30T09:42:57;13.35;;;7.25;;
80195;SDS011;69516;42.050;21.516;2024-01-30T09:45:27;12.80;;;7.40;;
80195;SDS011;69516;42.050;21.516;2024-01-30T09:47:53;12.15;;;6.55;;
80195;SDS011;69516;42.050;21.516;2024-01-30T09:50:19;12.75;;;6.75;;
80195;SDS011;69516;42.050;21.516;2024-01-30T09:52:46;13.48;;;7.60;;
80195;SDS011;69516;42.050;21.516;2024-01-30T09:55:13;12.82;;;6.65;;
80195;SDS011;69516;42.050;21.516;2024-01-30T09:57:39;11.40;;;6.57;;
80195;SDS011;69516;42.050;21.516;2024-01-30T10:00:10;14.25;;;7.13;;
80195;SDS011;69516;42.050;21.516;2024-01-30T10:02:45;14.77;;;7.57;;
80195;SDS011;69516;42.050;21.516;2024-01-30T10:05:13;14.00;;;7.30;;
80195;SDS011;69516;42.050;21.516;2024-01-30T10:07:56;13.75;;;7.30;;
80195;SDS011;69516;42.050;21.516;2024-01-30T10:10:23;12.55;;;6.93;;
80195;SDS011;69516;42.050;21.516;2024-01-30T10:12:52;12.85;;;7.00;;
80195;SDS011;69516;42.050;21.516;2024-01-30T10:15:21;13.55;;;7.00;;
80195;SDS011;69516;42.050;21.516;2024-01-30T10:17:48;14.00;;;7.43;;
80195;SDS011;69516;42.050;21.516;2024-01-30T10:20:15;10.82;;;5.75;;
80195;SDS011;69516;42.050;21.516;2024-01-30T10:22:42;13.50;;;6.90;;
80195;SDS011;69516;42.050;21.516;2024-01-30T10:25:09;12.48;;;6.57;;
80195;SDS011;69516;42.050;21.516;2024-01-30T10:27:36;12.38;;;7.20;;
80195;SDS011;69516;42.050;21.516;2024-01-30T10:30:02;14.65;;;7.30;;
80195;SDS011;69516;42.050;21.516;2024-01-30T10:32:32;16.15;;;9.35;;
80195;SDS011;69516;42.050;21.516;2024-01-30T10:34:59;11.95;;;6.47;;
80195;SDS011;69516;42.050;21.516;2024-01-30T10:37:48;10.90;;;6.00;;
80195;SDS011;69516;42.050;21.516;2024-01-30T10:40:14;13.07;;;6.25;;
80195;SDS011;69516;42.050;21.516;2024-01-30T10:42:44;12.38;;;6.43;;
80195;SDS011;69516;42.050;21.516;2024-01-30T10:45:13;10.93;;;6.10;;
80195;SDS011;69516;42.050;21.516;2024-01-30T10:47:43;10.80;;;6.05;;
80195;SDS011;69516;42.050;21.516;2024-01-30T10:50:09;12.15;;;6.45;;
80195;SDS011;69516;42.050;21.516;2024-01-30T10:52:36;12.60;;;6.28;;
80195;SDS011;69516;42.050;21.516;2024-01-30T10:55:03;12.75;;;5.57;;
80195;SDS011;69516;42.050;21.516;2024-01-30T10:57:33;11.68;;;6.00;;
80195;SDS011;69516;42.050;21.516;2024-01-30T11:00:01;12.73;;;5.65;;
80195;SDS011;69516;42.050;21.516;2024-01-30T11:02:30;9.63;;;5.40;;
80195;SDS011;69516;42.050;21.516;2024-01-30T11:04:57;9.10;;;5.80;;
80195;SDS011;69516;42.050;21.516;2024-01-30T11:07:27;9.57;;;5.47;;
80195;SDS011;69516;42.050;21.516;2024-01-30T11:09:59;11.98;;;6.07;;
80195;SDS011;69516;42.050;21.516;2024-01-30T11:12:30;9.60;;;5.60;;
80195;SDS011;69516;42.050;21.516;2024-01-30T11:15:12;11.90;;;5.97;;
80195;SDS011;69516;42.050;21.516;2024-01-30T11:17:45;9.73;;;5.18;;
80195;SDS011;69516;42.050;21.516;2024-01-30T11:20:15;13.43;;;5.57;;
80195;SDS011;69516;42.050;21.516;2024-01-30T11:22:49;10.05;;;5.85;;
80195;SDS011;69516;42.050;21.516;2024-01-30T11:25:16;11.18;;;5.72;;
80195;SDS011;69516;42.050;21.516;2024-01-30T11:27:43;10.15;;;5.22;;
80195;SDS011;69516;42.050;21.516;2024-01-30T11:30:10;11.63;;;5.82;;
80195;SDS011;69516;42.050;21.516;2024-01-30T11:32:36;10.57;;;6.38;;
80195;SDS011;69516;42.050;21.516;2024-01-30T11:35:03;17.98;;;6.93;;
80195;SDS011;69516;42.050;21.516;2024-01-30T11:37:31;12.88;;;6.70;;
80195;SDS011;69516;42.050;21.516;2024-01-30T11:39:57;13.63;;;6.50;;
80195;SDS011;69516;42.050;21.516;2024-01-30T11:42:24;13.75;;;6.30;;
80195;SDS011;69516;42.050;21.516;2024-01-30T11:44:52;11.52;;;6.45;;
80195;SDS011;69516;42.050;21.516;2024-01-30T11:47:18;12.48;;;6.95;;
80195;SDS011;69516;42.050;21.516;2024-01-30T11:49:44;13.85;;;6.13;;
80195;SDS011;69516;42.050;21.516;2024-01-30T11:52:10;11.98;;;7.03;;
80195;SDS011;69516;42.050;21.516;2024-01-30T11:54:41;11.85;;;6.15;;
80195;SDS011;69516;42.050;21.516;2024-01-30T11:57:07;12.25;;;6.43;;
80195;SDS011;69516;42.050;21.516;2024-01-30T11:59:33;12.05;;;6.45;;
80195;SDS011;69516;42.050;21.516;2024-01-30T12:01:59;11.30;;;5.65;;
80195;SDS011;69516;42.050;21.516;2024-01-30T12:04:29;11.20;;;6.75;;
80195;SDS011;69516;42.050;21.516;2024-01-30T12:06:55;12.65;;;6.22;;
80195;SDS011;69516;42.050;21.516;2024-01-30T12:09:21;12.55;;;5.72;;
80195;SDS011;69516;42.050;21.516;2024-01-30T12:11:48;10.95;;;5.82;;
80195;SDS011;69516;42.050;21.516;2024-01-30T12:14:17;10.55;;;6.20;;
80195;SDS011;69516;42.050;21.516;2024-01-30T12:16:47;11.52;;;6.18;;
80195;SDS011;69516;42.050;21.516;2024-01-30T12:19:25;11.40;;;6.38;;
80195;SDS011;69516;42.050;21.516;2024-01-30T12:21:57;11.10;;;6.28;;
80195;SDS011;69516;42.050;21.516;2024-01-30T12:24:27;11.18;;;5.85;;
80195;SDS011;69516;42.050;21.516;2024-01-30T12:26:57;11.20;;;5.80;;
80195;SDS011;69516;42.050;21.516;2024-01-30T12:29:23;10.85;;;5.22;;
80195;SDS011;69516;42.050;21.516;2024-01-30T12:31:52;7.88;;;5.35;;
80195;SDS011;69516;42.050;21.516;2024-01-30T12:34:20;10.10;;;5.07;;
80195;SDS011;69516;42.050;21.516;2024-01-30T12:36:49;9.20;;;5.18;;
80195;SDS011;69516;42.050;21.516;2024-01-30T12:39:15;9.93;;;5.22;;
80195;SDS011;69516;42.050;21.516;2024-01-30T12:41:43;10.98;;;5.40;;
80195;SDS011;69516;42.050;21.516;2024-01-30T12:44:09;9.27;;;4.95;;
80195;SDS011;69516;42.050;21.516;2024-01-30T12:46:35;9.70;;;4.47;;
80195;SDS011;69516;42.050;21.516;2024-01-30T12:49:01;9.10;;;4.68;;
80195;SDS011;69516;42.050;21.516;2024-01-30T12:51:28;8.23;;;4.28;;
80195;SDS011;69516;42.050;21.516;2024-01-30T12:53:55;9.30;;;4.63;;
80195;SDS011;69516;42.050;21.516;2024-01-30T12:56:24;8.85;;;4.82;;
80195;SDS011;69516;42.050;21.516;2024-01-30T12:58:50;8.88;;;5.00;;
80195;SDS011;69516;42.050;21.516;2024-01-30T13:01:17;11.35;;;4.88;;
80195;SDS011;69516;42.050;21.516;2024-01-30T13:03:43;8.68;;;4.38;;
80195;SDS011;69516;42.050;21.516;2024-01-30T13:06:09;9.00;;;4.20;;
80195;SDS011;69516;42.050;21.516;2024-01-30T13:08:35;7.53;;;4.25;;
80195;SDS011;69516;42.050;21.516;2024-01-30T13:11:02;8.27;;;4.28;;
80195;SDS011;69516;42.050;21.516;2024-01-30T13:13:28;7.05;;;3.55;;
80195;SDS011;69516;42.050;21.516;2024-01-30T13:15:55;6.85;;;3.95;;
80195;SDS011;69516;42.050;21.516;2024-01-30T13:18:21;7.68;;;3.92;;
80195;SDS011;69516;42.050;21.516;2024-01-30T13:20:48;7.75;;;4.30;;
80195;SDS011;69516;42.050;21.516;2024-01-30T13:23:14;7.40;;;4.10;;
80195;SDS011;69516;42.050;21.516;2024-01-30T13:25:41;8.05;;;3.55;;
80195;SDS011;69516;42.050;21.516;2024-01-30T13:28:07;11.48;;;4.10;;
80195;SDS011;69516;42.050;21.516;2024-01-30T13:30:33;9.80;;;3.65;;
80195;SDS011;69516;42.050;21.516;2024-01-30T13:33:00;7.85;;;3.45;;
80195;SDS011;69516;42.050;21.516;2024-01-30T13:35:27;8.20;;;3.40;;
80195;SDS011;69516;42.050;21.516;2024-01-30T13:37:54;8.57;;;4.40;;
80195;SDS011;69516;42.050;21.516;2024-01-30T13:40:21;7.30;;;3.90;;
80195;SDS011;69516;42.050;21.516;2024-01-30T13:42:47;7.57;;;3.65;;
80195;SDS011;69516;42.050;21.516;2024-01-30T13:45:14;8.27;;;3.42;;
80195;SDS011;69516;42.050;21.516;2024-01-30T13:47:41;7.30;;;3.45;;
80195;SDS011;69516;42.050;21.516;2024-01-30T13:50:07;10.25;;;3.58;;
80195;SDS011;69516;42.050;21.516;2024-01-30T13:52:34;10.45;;;3.88;;
80195;SDS011;69516;42.050;21.516;2024-01-30T13:55:00;7.10;;;3.40;;
80195;SDS011;69516;42.050;21.516;2024-01-30T13:57:27;8.50;;;3.72;;
80195;SDS011;69516;42.050;21.516;2024-01-30T13:59:53;7.47;;;4.00;;
80195;SDS011;69516;42.050;21.516;2024-01-30T14:02:19;8.40;;;3.83;;
80195;SDS011;69516;42.050;21.516;2024-01-30T14:04:46;8.55;;;3.85;;
80195;SDS011;69516;42.050;21.516;2024-01-30T14:09:58;8.43;;;3.60;;
80195;SDS011;69516;42.050;21.516;2024-01-30T14:12:25;7.18;;;3.63;;
80195;SDS011;69516;42.050;21.516;2024-01-30T14:14:51;7.30;;;4.22;;
80195;SDS011;69516;42.050;21.516;2024-01-30T14:17:17;7.55;;;3.80;;
80195;SDS011;69516;42.050;21.516;2024-01-30T14:19:44;8.27;;;3.75;;
80195;SDS011;69516;42.050;21.516;2024-01-30T14:22:11;7.45;;;3.80;;
80195;SDS011;69516;42.050;21.516;2024-01-30T14:24:37;7.72;;;4.10;;
80195;SDS011;69516;42.050;21.516;2024-01-30T14:27:04;7.63;;;3.90;;
80195;SDS011;69516;42.050;21.516;2024-01-30T14:29:30;8.00;;;3.42;;